Time;durP1;ratioP1;P1;durP2;ratioP2;P2;SDS_P1;SDS_P2;PMS_P1;PMS_P2;Temp;Humidity;BMP_temperature;BMP_pressure;BME280_temperature;BME280_humidity;BME280_pressure;Samples;Min_cycle;Max_cycle;Signal;HPM_P1;HPM_P2
2024/02/18 00:00:43;;;;;;;14.70;9.97;;;5.10;99.90;;;;;;4992565;28;20201;-59
2024/02/18 00:03:09;;;;;;;17.73;10.50;;;5.10;99.90;;;;;;4990113;28;20192;-58
2024/02/18 00:05:35;;;;;;;17.20;10.90;;;5.10;99.90;;;;;;4985630;28;20205;-59
2024/02/18 00:08:01;;;;;;;15.60;10.03;;;5.10;99.90;;;;;;4983465;28;20181;-57
2024/02/18 00:10:27;;;;;;;14.53;9.30;;;5.10;99.90;;;;;;4986655;28;20432;-58
2024/02/18 00:12:52;;;;;;;17.33;10.27;;;5.10;99.90;;;;;;4988976;28;20767;-58
2024/02/18 00:15:18;;;;;;;16.63;10.13;;;5.10;99.90;;;;;;4986059;28;20205;-58
2024/02/18 00:17:43;;;;;;;17.70;10.70;;;5.10;99.90;;;;;;4982927;28;20182;-57
2024/02/18 00:20:11;;;;;;;17.50;9.93;;;5.10;99.90;;;;;;4988261;28;21604;-58
2024/02/18 00:22:37;;;;;;;22.60;10.20;;;5.10;99.90;;;;;;4983065;28;20239;-59
2024/02/18 00:25:06;;;;;;;17.80;10.53;;;5.10;99.90;;;;;;4988768;28;20950;-58
2024/02/18 00:27:32;;;;;;;16.27;10.13;;;5.10;99.90;;;;;;4985928;28;20408;-58
2024/02/18 00:29:58;;;;;;;17.70;9.57;;;5.00;99.90;;;;;;4985500;28;20786;-58
2024/02/18 00:32:23;;;;;;;17.30;10.93;;;5.00;99.90;;;;;;4981533;28;20436;-58
2024/02/18 00:34:49;;;;;;;19.63;10.93;;;5.00;99.90;;;;;;4986838;28;20201;-59
2024/02/18 00:37:15;;;;;;;16.07;10.53;;;5.00;99.90;;;;;;4985739;28;20182;-59
2024/02/18 00:39:40;;;;;;;18.07;9.80;;;5.00;99.90;;;;;;4987437;28;20184;-58
2024/02/18 00:42:08;;;;;;;15.83;9.60;;;5.00;99.90;;;;;;4991863;28;20300;-58
2024/02/18 00:44:34;;;;;;;14.40;10.13;;;5.00;99.90;;;;;;4992225;28;20212;-58
2024/02/18 00:47:00;;;;;;;18.33;10.43;;;5.00;99.90;;;;;;4992000;28;20440;-58
2024/02/18 00:49:25;;;;;;;17.00;10.63;;;5.00;99.90;;;;;;4991440;28;20181;-58
2024/02/18 00:51:52;;;;;;;15.67;10.03;;;5.00;99.90;;;;;;4991817;28;20432;-58
2024/02/18 00:54:17;;;;;;;15.77;10.20;;;5.00;99.90;;;;;;5006582;28;20224;-57
2024/02/18 00:56:43;;;;;;;21.47;10.07;;;5.00;99.90;;;;;;4990644;28;21188;-58
2024/02/18 00:59:09;;;;;;;18.43;10.97;;;5.00;99.90;;;;;;4993221;28;20187;-59
2024/02/18 01:01:35;;;;;;;19.33;8.97;;;5.00;99.90;;;;;;4992698;28;21024;-58
2024/02/18 01:04:01;;;;;;;19.87;9.73;;;5.00;99.90;;;;;;4994231;28;20201;-58
2024/02/18 01:06:27;;;;;;;16.57;10.67;;;5.00;99.90;;;;;;4987351;28;20436;-58
2024/02/18 01:08:52;;;;;;;19.03;10.70;;;4.90;99.90;;;;;;4990817;28;20680;-58
2024/02/18 01:11:18;;;;;;;18.97;9.93;;;4.90;99.90;;;;;;4989419;28;20193;-59
2024/02/18 01:13:43;;;;;;;16.47;9.90;;;4.90;99.90;;;;;;4993491;28;20204;-58
2024/02/18 01:16:09;;;;;;;16.20;9.73;;;4.90;99.90;;;;;;4985754;28;20185;-58
2024/02/18 01:18:39;;;;;;;13.83;9.67;;;4.90;99.90;;;;;;4986447;28;20371;-59
2024/02/18 01:21:05;;;;;;;19.17;9.80;;;4.80;99.90;;;;;;4990823;28;20642;-59
2024/02/18 01:23:31;;;;;;;15.23;10.13;;;4.70;99.90;;;;;;4988749;28;20422;-57
2024/02/18 01:25:56;;;;;;;20.83;11.87;;;4.70;99.90;;;;;;4987548;28;20216;-59
2024/02/18 01:28:24;;;;;;;15.77;10.23;;;4.60;99.90;;;;;;4986869;28;20181;-58
2024/02/18 01:30:50;;;;;;;21.33;10.57;;;4.60;99.90;;;;;;4991162;28;20710;-58
2024/02/18 01:33:15;;;;;;;14.37;9.97;;;4.50;99.90;;;;;;4987926;28;20432;-58
2024/02/18 01:35:41;;;;;;;17.07;10.47;;;4.50;99.90;;;;;;4989672;28;20421;-58
2024/02/18 01:38:07;;;;;;;17.20;10.63;;;4.50;99.90;;;;;;4988507;28;20193;-59
2024/02/18 01:40:32;;;;;;;15.77;10.70;;;4.40;99.90;;;;;;4992518;28;20682;-58
2024/02/18 01:42:58;;;;;;;14.70;9.63;;;4.40;99.90;;;;;;4989694;28;20197;-59
2024/02/18 01:45:23;;;;;;;15.27;10.20;;;4.40;99.90;;;;;;4989546;28;20632;-58
2024/02/18 01:47:49;;;;;;;19.00;10.90;;;4.30;99.90;;;;;;4993185;28;20169;-58
2024/02/18 01:50:15;;;;;;;17.90;10.47;;;4.30;99.90;;;;;;4987370;28;20187;-58
2024/02/18 01:52:43;;;;;;;17.10;9.97;;;4.30;99.90;;;;;;4990494;28;20204;-58
2024/02/18 01:55:11;;;;;;;19.40;10.57;;;4.20;99.90;;;;;;4988463;28;20343;-58
2024/02/18 01:57:37;;;;;;;19.77;10.57;;;4.10;99.90;;;;;;4993373;28;20413;-58
2024/02/18 02:00:05;;;;;;;19.53;10.67;;;4.10;99.90;;;;;;4990466;28;20450;-58
2024/02/18 02:02:31;;;;;;;16.23;10.60;;;4.10;99.90;;;;;;4987584;28;20440;-58
2024/02/18 02:04:57;;;;;;;22.97;11.10;;;4.00;99.90;;;;;;4990555;28;20973;-59
2024/02/18 02:07:24;;;;;;;16.90;10.27;;;4.00;99.90;;;;;;4991272;28;20444;-58
2024/02/18 02:09:50;;;;;;;16.10;10.10;;;4.00;99.90;;;;;;4981229;28;20623;-58
2024/02/18 02:12:16;;;;;;;17.77;10.37;;;4.00;99.90;;;;;;4989219;28;21071;-59
2024/02/18 02:14:42;;;;;;;16.57;9.20;;;3.90;99.90;;;;;;4990808;28;20280;-58
2024/02/18 02:17:08;;;;;;;20.23;10.00;;;3.90;99.90;;;;;;4991442;28;20471;-59
2024/02/18 02:19:33;;;;;;;15.40;9.50;;;3.90;99.90;;;;;;4991576;28;20193;-59
2024/02/18 02:21:59;;;;;;;14.80;8.97;;;3.90;99.90;;;;;;4992048;28;20205;-58
2024/02/18 02:24:24;;;;;;;19.30;10.73;;;3.90;99.90;;;;;;4989445;28;20688;-58
2024/02/18 02:26:54;;;;;;;14.90;9.53;;;3.90;99.90;;;;;;4985906;28;20228;-59
2024/02/18 02:29:21;;;;;;;21.83;10.43;;;3.80;99.90;;;;;;4986288;28;20830;-59
2024/02/18 02:31:47;;;;;;;22.13;10.17;;;3.80;99.90;;;;;;4987502;28;20440;-58
2024/02/18 02:34:16;;;;;;;20.03;11.27;;;3.80;99.90;;;;;;4986067;28;20962;-58
2024/02/18 02:36:42;;;;;;;17.20;9.47;;;3.70;99.90;;;;;;4988496;28;20855;-58
2024/02/18 02:39:11;;;;;;;15.63;9.70;;;3.70;99.90;;;;;;4991767;28;20443;-58
2024/02/18 02:41:37;;;;;;;21.80;9.80;;;3.70;99.90;;;;;;4984741;28;20228;-58
2024/02/18 02:44:03;;;;;;;18.17;10.23;;;3.70;99.90;;;;;;4993027;28;20981;-58
2024/02/18 02:46:29;;;;;;;17.60;9.40;;;3.70;99.90;;;;;;4986090;28;20528;-58
2024/02/18 02:48:55;;;;;;;19.63;10.80;;;3.70;99.90;;;;;;4991177;28;20504;-58
2024/02/18 02:51:20;;;;;;;19.37;10.20;;;3.60;99.90;;;;;;4989732;28;20215;-58
2024/02/18 02:53:46;;;;;;;18.23;10.70;;;3.60;99.90;;;;;;4991707;28;20940;-57
2024/02/18 02:56:12;;;;;;;15.60;11.17;;;3.60;99.90;;;;;;4985149;28;20196;-59
2024/02/18 02:58:37;;;;;;;18.67;10.20;;;3.50;99.90;;;;;;4991214;28;20553;-58
2024/02/18 03:01:03;;;;;;;17.53;10.40;;;3.50;99.90;;;;;;4985046;28;20212;-59
2024/02/18 03:03:29;;;;;;;14.67;9.60;;;3.50;99.90;;;;;;4987965;28;20177;-59
2024/02/18 03:05:55;;;;;;;17.03;10.57;;;3.50;99.90;;;;;;4991598;28;20412;-59
2024/02/18 03:08:21;;;;;;;19.50;10.30;;;3.50;99.90;;;;;;4989332;28;20691;-59
2024/02/18 03:10:47;;;;;;;19.63;10.77;;;3.50;99.90;;;;;;4987699;28;20185;-58
2024/02/18 03:13:12;;;;;;;16.60;10.73;;;3.50;99.90;;;;;;4988522;28;21150;-58
2024/02/18 03:15:38;;;;;;;18.60;11.43;;;3.40;99.90;;;;;;4989936;28;20283;-59
2024/02/18 03:18:04;;;;;;;20.40;10.27;;;3.40;99.90;;;;;;4993630;28;20180;-58
2024/02/18 03:20:30;;;;;;;17.60;10.97;;;3.40;99.90;;;;;;4995411;28;20192;-58
2024/02/18 03:22:55;;;;;;;37.83;12.17;;;3.50;99.90;;;;;;4988596;28;20424;-59
2024/02/18 03:25:22;;;;;;;19.90;11.50;;;3.40;99.90;;;;;;4982483;28;20993;-59
2024/02/18 03:27:47;;;;;;;25.80;12.60;;;3.40;99.90;;;;;;4984865;28;20220;-59
2024/02/18 03:30:13;;;;;;;75.40;15.07;;;3.40;99.90;;;;;;4984643;28;20463;-59
2024/02/18 03:32:39;;;;;;;35.50;11.27;;;3.40;99.90;;;;;;4984868;28;20184;-58
2024/02/18 03:35:05;;;;;;;41.80;12.50;;;3.40;99.90;;;;;;4981167;28;20201;-58
2024/02/18 03:37:31;;;;;;;24.30;11.73;;;3.40;99.90;;;;;;4987481;28;20185;-58
2024/02/18 03:39:57;;;;;;;78.70;12.90;;;3.30;99.90;;;;;;4986040;28;20434;-58
2024/02/18 03:42:22;;;;;;;37.80;11.80;;;3.30;99.90;;;;;;4988446;28;20577;-58
2024/02/18 03:44:48;;;;;;;32.97;10.97;;;3.30;99.90;;;;;;4990300;28;20200;-58
2024/02/18 03:47:14;;;;;;;30.23;12.30;;;3.30;99.90;;;;;;4988145;28;20183;-59
2024/02/18 03:49:40;;;;;;;24.00;11.30;;;3.30;99.90;;;;;;4993235;28;20173;-60
2024/02/18 03:52:06;;;;;;;22.40;11.10;;;3.20;99.90;;;;;;4989973;28;20176;-58
2024/02/18 03:54:32;;;;;;;24.20;12.27;;;3.20;99.90;;;;;;4986496;28;21013;-57
2024/02/18 03:56:58;;;;;;;27.93;12.60;;;3.20;99.90;;;;;;4987589;28;20431;-59
2024/02/18 03:59:23;;;;;;;52.97;12.43;;;3.20;99.90;;;;;;4993232;28;20403;-58
2024/02/18 04:01:49;;;;;;;124.17;15.77;;;3.20;99.90;;;;;;4988445;28;20820;-58
2024/02/18 04:04:15;;;;;;;136.73;16.80;;;3.20;99.90;;;;;;4982071;28;20259;-59
2024/02/18 04:06:41;;;;;;;142.23;14.53;;;3.20;99.90;;;;;;4987696;28;20274;-59
2024/02/18 04:09:07;;;;;;;70.87;14.80;;;3.20;99.90;;;;;;4987788;28;20715;-58
2024/02/18 04:11:33;;;;;;;68.47;14.97;;;3.20;99.90;;;;;;4986079;28;20180;-59
2024/02/18 04:13:59;;;;;;;57.70;13.10;;;3.20;99.90;;;;;;4987992;28;20992;-58
2024/02/18 04:16:24;;;;;;;91.37;15.77;;;3.20;99.90;;;;;;4991424;28;20181;-58
2024/02/18 04:18:50;;;;;;;136.77;17.57;;;3.20;99.90;;;;;;4989691;28;20180;-58
2024/02/18 04:21:16;;;;;;;69.73;15.47;;;3.20;99.90;;;;;;4990373;28;20192;-57
2024/02/18 04:23:41;;;;;;;49.30;14.40;;;3.30;99.90;;;;;;4990343;28;20213;-58
2024/02/18 04:26:07;;;;;;;99.23;15.03;;;3.30;99.90;;;;;;4988445;28;20192;-59
2024/02/18 04:28:33;;;;;;;55.13;13.43;;;3.30;99.90;;;;;;4992717;28;20176;-58
2024/02/18 04:30:58;;;;;;;77.03;15.93;;;3.30;99.90;;;;;;4995001;28;20268;-58
2024/02/18 04:33:24;;;;;;;48.33;13.83;;;3.30;99.90;;;;;;4991285;28;20679;-58
2024/02/18 04:35:50;;;;;;;94.90;15.60;;;3.30;99.90;;;;;;4990957;28;20437;-58
2024/02/18 04:38:16;;;;;;;73.20;15.23;;;3.30;99.90;;;;;;4989544;28;20208;-57
2024/02/18 04:40:41;;;;;;;47.80;13.33;;;3.30;99.90;;;;;;4998110;28;20491;-59
2024/02/18 04:43:09;;;;;;;42.07;14.10;;;3.30;99.90;;;;;;4990440;28;20181;-58
2024/02/18 04:45:35;;;;;;;65.73;15.10;;;3.30;99.90;;;;;;4992231;28;20260;-58
2024/02/18 04:48:01;;;;;;;36.40;13.30;;;3.30;99.90;;;;;;4993996;28;20911;-57
2024/02/18 04:50:26;;;;;;;88.00;13.53;;;3.30;99.90;;;;;;4988590;28;20189;-58
2024/02/18 04:52:52;;;;;;;50.77;14.23;;;3.30;99.90;;;;;;4985610;28;20216;-59
2024/02/18 04:55:18;;;;;;;68.33;14.60;;;3.20;99.90;;;;;;4989903;28;20213;-59
2024/02/18 04:57:43;;;;;;;88.83;15.10;;;3.20;99.90;;;;;;4994366;28;20458;-58
2024/02/18 05:00:10;;;;;;;44.77;12.17;;;3.20;99.90;;;;;;4994214;28;20704;-58
2024/02/18 05:02:36;;;;;;;54.60;12.60;;;3.20;99.90;;;;;;4986485;28;20678;-58
2024/02/18 05:05:02;;;;;;;128.17;14.67;;;3.20;99.90;;;;;;4993654;28;20463;-58
2024/02/18 05:07:28;;;;;;;101.47;12.83;;;3.10;99.90;;;;;;4992660;28;20961;-58
2024/02/18 05:09:53;;;;;;;65.30;12.40;;;3.10;99.90;;;;;;4995290;28;20793;-58
2024/02/18 05:12:19;;;;;;;49.50;13.33;;;3.10;99.90;;;;;;4989271;28;20203;-58
2024/02/18 05:14:44;;;;;;;70.83;13.20;;;3.10;99.90;;;;;;4995734;28;20201;-59
2024/02/18 05:17:10;;;;;;;89.90;14.60;;;3.00;99.90;;;;;;4991952;28;20189;-58
2024/02/18 05:19:36;;;;;;;69.17;14.37;;;3.00;99.90;;;;;;4989788;28;20200;-58
2024/02/18 05:22:02;;;;;;;57.20;13.53;;;3.00;99.90;;;;;;4989605;28;20217;-57
2024/02/18 05:24:28;;;;;;;37.20;12.20;;;3.00;99.90;;;;;;4993182;28;20190;-59
2024/02/18 05:26:54;;;;;;;33.37;11.67;;;2.90;99.90;;;;;;4988728;28;20463;-58
2024/02/18 05:29:22;;;;;;;50.57;12.20;;;2.90;99.90;;;;;;4988857;28;20678;-58
2024/02/18 05:31:47;;;;;;;22.70;10.87;;;2.90;99.90;;;;;;4989687;28;20509;-57
2024/02/18 05:34:14;;;;;;;32.50;12.30;;;2.90;99.90;;;;;;4987714;28;20599;-59
2024/02/18 05:36:43;;;;;;;24.27;10.80;;;2.90;99.90;;;;;;4987419;28;20183;-58
2024/02/18 05:39:12;;;;;;;52.07;11.30;;;2.80;99.90;;;;;;4989269;28;20451;-58
2024/02/18 05:41:38;;;;;;;58.30;11.70;;;2.80;99.90;;;;;;4992660;28;20471;-59
2024/02/18 05:44:03;;;;;;;25.63;10.20;;;2.80;99.90;;;;;;4987876;28;20451;-58
2024/02/18 05:46:29;;;;;;;29.50;11.40;;;2.70;99.90;;;;;;4989366;28;20176;-57
2024/02/18 05:48:55;;;;;;;20.77;10.33;;;2.70;99.90;;;;;;4989732;28;20213;-58
2024/02/18 05:51:20;;;;;;;30.50;9.77;;;2.70;99.90;;;;;;4988980;28;20648;-58
2024/02/18 05:53:46;;;;;;;15.33;9.97;;;2.70;99.90;;;;;;4988273;28;20292;-58
2024/02/18 05:56:12;;;;;;;22.50;9.97;;;2.70;99.90;;;;;;4990154;28;20207;-58
2024/02/18 05:58:37;;;;;;;32.77;11.10;;;2.70;99.90;;;;;;4994504;28;20177;-58
2024/02/18 06:01:03;;;;;;;18.80;10.80;;;2.70;99.90;;;;;;4990925;28;20208;-58
2024/02/18 06:03:29;;;;;;;17.27;9.63;;;2.70;99.90;;;;;;4994254;28;20176;-58
2024/02/18 06:05:55;;;;;;;34.07;10.80;;;2.70;99.90;;;;;;4986986;28;20173;-58
2024/02/18 06:08:20;;;;;;;32.57;10.53;;;2.70;99.90;;;;;;4986356;28;20560;-58
2024/02/18 06:10:48;;;;;;;24.67;10.63;;;2.70;99.90;;;;;;4984744;28;20174;-59
2024/02/18 06:13:14;;;;;;;34.47;10.73;;;2.60;99.90;;;;;;4990310;28;20663;-58
2024/02/18 06:15:39;;;;;;;16.73;10.50;;;2.60;99.90;;;;;;4989034;28;20480;-58
2024/02/18 06:18:05;;;;;;;17.73;10.53;;;2.60;99.90;;;;;;4986667;28;20184;-59
2024/02/18 06:20:31;;;;;;;27.80;10.70;;;2.60;99.90;;;;;;4986373;28;20291;-57
2024/02/18 06:22:57;;;;;;;19.80;11.20;;;2.60;99.90;;;;;;4990371;28;20189;-59
2024/02/18 06:25:23;;;;;;;19.23;11.23;;;2.60;99.90;;;;;;4989807;28;20432;-58
2024/02/18 06:27:50;;;;;;;30.40;10.63;;;2.60;99.90;;;;;;4985828;28;20629;-59
2024/02/18 06:30:16;;;;;;;18.30;10.90;;;2.60;99.90;;;;;;4988101;28;20428;-58
2024/02/18 06:32:41;;;;;;;24.33;12.30;;;2.60;99.90;;;;;;4987662;28;20428;-58
2024/02/18 06:35:08;;;;;;;55.33;12.40;;;2.60;99.90;;;;;;4989328;28;20514;-59
2024/02/18 06:37:34;;;;;;;43.93;14.33;;;2.60;99.90;;;;;;4988638;28;20177;-58
2024/02/18 06:39:59;;;;;;;216.67;20.47;;;2.60;99.90;;;;;;4986591;28;20455;-58
2024/02/18 06:42:25;;;;;;;44.03;15.13;;;2.60;99.90;;;;;;4989250;28;20226;-59
2024/02/18 06:44:51;;;;;;;33.60;14.20;;;2.50;99.90;;;;;;4989983;28;20251;-59
2024/02/18 06:47:17;;;;;;;31.27;14.37;;;2.50;99.90;;;;;;4987352;28;20181;-56
2024/02/18 06:49:42;;;;;;;34.33;13.87;;;2.50;99.90;;;;;;4987938;28;20419;-58
2024/02/18 06:52:08;;;;;;;40.73;14.27;;;2.50;99.90;;;;;;4988020;28;20181;-58
2024/02/18 06:54:34;;;;;;;44.67;15.73;;;2.60;99.90;;;;;;4990991;28;20240;-59
2024/02/18 06:56:59;;;;;;;57.07;16.40;;;2.60;99.90;;;;;;4987679;28;20207;-59
2024/02/18 06:59:25;;;;;;;55.93;16.97;;;2.60;99.90;;;;;;4990508;28;20184;-58
2024/02/18 07:01:50;;;;;;;32.73;16.70;;;2.60;99.90;;;;;;4982824;28;20610;-61
2024/02/18 07:04:16;;;;;;;37.27;15.27;;;2.60;99.90;;;;;;4985655;28;20274;-57
2024/02/18 07:06:41;;;;;;;23.70;13.73;;;2.60;99.90;;;;;;4986265;28;20669;-60
2024/02/18 07:09:07;;;;;;;31.43;16.20;;;2.60;99.90;;;;;;4983726;28;20173;-58
2024/02/18 07:11:33;;;;;;;32.57;15.13;;;2.70;99.90;;;;;;4988991;28;20177;-58
2024/02/18 07:13:59;;;;;;;71.67;18.63;;;2.70;99.90;;;;;;4982225;28;20201;-57
2024/02/18 07:16:25;;;;;;;39.70;17.10;;;2.70;99.90;;;;;;4985292;28;20440;-59
2024/02/18 07:18:50;;;;;;;32.90;17.03;;;2.70;99.90;;;;;;4988121;28;20420;-59
2024/02/18 07:21:16;;;;;;;36.07;16.30;;;2.80;99.90;;;;;;4984819;28;20274;-58
2024/02/18 07:23:42;;;;;;;52.50;16.30;;;2.80;99.90;;;;;;4986306;28;20290;-58
2024/02/18 07:26:11;;;;;;;30.73;15.40;;;2.80;99.90;;;;;;4987221;28;20182;-58
2024/02/18 07:28:37;;;;;;;34.73;15.67;;;2.80;99.90;;;;;;4987891;28;20181;-58
2024/02/18 07:31:04;;;;;;;67.73;19.10;;;2.80;99.90;;;;;;4985823;28;20432;-59
2024/02/18 07:33:30;;;;;;;41.13;16.73;;;2.80;99.90;;;;;;4987718;28;20424;-58
2024/02/18 07:35:55;;;;;;;39.37;16.07;;;2.80;99.90;;;;;;4989124;28;20412;-58
2024/02/18 07:38:21;;;;;;;28.70;14.17;;;2.80;99.90;;;;;;4984614;28;20258;-58
2024/02/18 07:40:46;;;;;;;31.90;14.07;;;2.80;99.90;;;;;;4989813;28;20200;-59
2024/02/18 07:43:14;;;;;;;23.63;14.07;;;2.80;99.90;;;;;;4984488;28;20651;-58
2024/02/18 07:45:40;;;;;;;23.33;13.03;;;2.80;99.90;;;;;;4988471;28;20302;-58
2024/02/18 07:48:06;;;;;;;35.53;12.33;;;2.80;99.90;;;;;;4992961;28;20966;-58
2024/02/18 07:50:32;;;;;;;24.13;11.90;;;2.80;99.90;;;;;;4992258;28;20180;-58
2024/02/18 07:52:57;;;;;;;18.77;12.63;;;2.80;99.90;;;;;;4990392;28;20264;-58
2024/02/18 07:55:24;;;;;;;23.33;13.03;;;2.80;99.90;;;;;;4993992;28;20307;-58
2024/02/18 07:57:49;;;;;;;21.17;12.40;;;2.80;99.90;;;;;;4989494;28;20188;-58
2024/02/18 08:00:15;;;;;;;37.93;12.40;;;2.90;99.90;;;;;;4989863;28;20474;-58
2024/02/18 08:02:41;;;;;;;20.47;12.63;;;2.90;99.90;;;;;;4990422;28;20170;-58
2024/02/18 08:05:10;;;;;;;20.27;12.07;;;3.00;99.90;;;;;;4989171;28;20459;-58
2024/02/18 08:07:36;;;;;;;20.20;11.37;;;3.00;99.90;;;;;;4991839;28;20176;-58
2024/02/18 08:10:03;;;;;;;30.87;12.97;;;3.10;99.90;;;;;;4990987;28;20509;-58
2024/02/18 08:12:28;;;;;;;31.60;12.67;;;3.10;99.90;;;;;;4989020;28;20431;-58
2024/02/18 08:14:54;;;;;;;36.53;13.90;;;3.10;99.90;;;;;;4988592;28;20456;-58
2024/02/18 08:17:19;;;;;;;39.13;12.50;;;3.20;99.90;;;;;;4991597;28;20272;-59
2024/02/18 08:19:45;;;;;;;56.70;15.07;;;3.10;99.90;;;;;;4996413;28;20181;-57
2024/02/18 08:22:11;;;;;;;27.10;13.30;;;3.20;99.90;;;;;;4987726;28;20236;-57
2024/02/18 08:24:36;;;;;;;85.90;17.70;;;3.20;99.90;;;;;;4990630;28;20206;-58
2024/02/18 08:27:02;;;;;;;34.43;14.27;;;3.20;99.90;;;;;;4990452;28;20176;-58
2024/02/18 08:29:28;;;;;;;28.93;14.97;;;3.20;99.90;;;;;;4989086;28;20168;-57
2024/02/18 08:31:54;;;;;;;28.90;17.07;;;3.30;99.90;;;;;;4988954;28;20264;-57
2024/02/18 08:34:20;;;;;;;25.60;15.10;;;3.40;99.90;;;;;;4989475;28;20200;-58
2024/02/18 08:36:45;;;;;;;36.67;15.73;;;3.40;99.90;;;;;;4986836;28;20798;-57
2024/02/18 08:39:11;;;;;;;28.37;16.73;;;3.50;99.90;;;;;;4991155;28;20747;-59
2024/02/18 08:41:37;;;;;;;27.90;15.43;;;3.50;99.90;;;;;;4994146;28;20191;-57
2024/02/18 08:44:03;;;;;;;32.00;15.07;;;3.60;99.90;;;;;;4988881;28;20193;-57
2024/02/18 08:46:29;;;;;;;29.00;14.60;;;3.60;99.90;;;;;;4985283;28;20177;-58
2024/02/18 08:48:55;;;;;;;28.70;16.30;;;3.70;99.90;;;;;;4989840;28;20177;-57
2024/02/18 08:51:21;;;;;;;35.80;16.63;;;3.70;99.90;;;;;;4988885;28;20469;-59
2024/02/18 08:53:46;;;;;;;35.00;16.47;;;3.80;99.90;;;;;;4951998;28;1084956;-57
2024/02/18 08:56:12;;;;;;;31.10;17.27;;;3.80;99.90;;;;;;4992971;28;20181;-58
2024/02/18 08:58:38;;;;;;;34.57;17.10;;;3.90;99.90;;;;;;4993219;28;20189;-58
2024/02/18 09:01:05;;;;;;;28.50;15.90;;;4.00;99.90;;;;;;4991211;28;20466;-58
2024/02/18 09:03:31;;;;;;;26.20;15.07;;;4.10;99.90;;;;;;4992814;28;20183;-57
2024/02/18 09:05:57;;;;;;;24.47;13.90;;;4.20;99.90;;;;;;4990065;28;20440;-57
2024/02/18 09:08:23;;;;;;;31.97;15.97;;;4.30;99.90;;;;;;4992911;28;20527;-59
2024/02/18 09:10:49;;;;;;;29.63;16.73;;;4.40;99.90;;;;;;4986467;28;20578;-58
2024/02/18 09:13:15;;;;;;;27.43;15.87;;;4.50;99.90;;;;;;4992715;28;20188;-57
2024/02/18 09:15:41;;;;;;;31.67;15.83;;;4.60;99.90;;;;;;4989621;28;20444;-57
2024/02/18 09:18:07;;;;;;;28.63;17.27;;;4.70;99.90;;;;;;4989417;28;20185;-58
2024/02/18 09:20:34;;;;;;;29.83;16.20;;;4.90;99.90;;;;;;4996110;28;20478;-57
2024/02/18 09:22:59;;;;;;;28.50;16.37;;;4.90;99.90;;;;;;4992762;28;21095;-59
2024/02/18 09:25:25;;;;;;;28.40;16.90;;;5.10;99.90;;;;;;4989208;28;20460;-59
2024/02/18 09:27:51;;;;;;;26.33;16.10;;;5.10;99.90;;;;;;4991122;28;20177;-58
2024/02/18 09:30:17;;;;;;;26.20;15.77;;;5.20;99.90;;;;;;4994179;28;20185;-58
2024/02/18 09:32:44;;;;;;;27.73;16.40;;;5.30;99.90;;;;;;4991457;28;20205;-58
2024/02/18 09:35:11;;;;;;;25.43;15.93;;;5.50;99.90;;;;;;4991998;28;20440;-58
2024/02/18 09:37:37;;;;;;;25.37;15.90;;;5.60;99.90;;;;;;4983794;28;20429;-57
2024/02/18 09:40:03;;;;;;;29.57;17.60;;;5.80;99.90;;;;;;4987811;28;20807;-59
2024/02/18 09:42:34;;;;;;;28.93;17.07;;;5.90;99.90;;;;;;4991229;28;20201;-58
2024/02/18 09:45:02;;;;;;;28.17;17.23;;;6.10;99.90;;;;;;4991359;28;20471;-58
2024/02/18 09:47:29;;;;;;;32.03;17.60;;;6.30;99.90;;;;;;4986177;28;20453;-57
2024/02/18 09:49:55;;;;;;;28.60;16.50;;;6.40;99.90;;;;;;4994085;28;20417;-58
2024/02/18 09:52:23;;;;;;;25.10;16.30;;;6.50;99.90;;;;;;4986468;28;22533;-59
2024/02/18 09:54:51;;;;;;;28.17;17.40;;;6.60;99.90;;;;;;4983271;28;20479;-58
2024/02/18 09:57:16;;;;;;;29.27;17.77;;;6.80;99.90;;;;;;4981675;28;21180;-57
2024/02/18 09:59:42;;;;;;;28.57;17.27;;;6.90;99.90;;;;;;4985568;28;20523;-58
2024/02/18 10:02:10;;;;;;;27.90;16.60;;;7.10;99.90;;;;;;4983590;28;20363;-57
2024/02/18 10:04:36;;;;;;;25.03;16.93;;;7.20;99.90;;;;;;4987231;28;20232;-58
2024/02/18 10:07:03;;;;;;;27.60;17.47;;;7.50;99.90;;;;;;4992994;28;20431;-57
2024/02/18 10:09:31;;;;;;;26.13;17.93;;;7.70;99.90;;;;;;4985694;28;20635;-58
2024/02/18 10:11:57;;;;;;;23.93;16.87;;;7.90;99.90;;;;;;4991679;28;20966;-58
2024/02/18 10:14:25;;;;;;;27.10;16.97;;;8.00;99.90;;;;;;4982652;28;21172;-58
2024/02/18 10:16:51;;;;;;;27.67;18.60;;;8.10;99.90;;;;;;4989143;28;20535;-59
2024/02/18 10:19:17;;;;;;;27.70;17.93;;;8.20;99.90;;;;;;4982797;28;20806;-59
2024/02/18 10:21:44;;;;;;;28.47;17.10;;;8.30;99.90;;;;;;4981042;28;20460;-58
2024/02/18 10:24:10;;;;;;;26.13;16.33;;;8.40;99.90;;;;;;4985263;28;20205;-57
2024/02/18 10:26:36;;;;;;;26.70;16.73;;;8.50;99.90;;;;;;4982623;28;20482;-57
2024/02/18 10:29:03;;;;;;;25.73;17.10;;;8.60;99.90;;;;;;4989187;28;20484;-59
2024/02/18 10:31:29;;;;;;;29.27;17.27;;;8.70;99.90;;;;;;4987286;28;20264;-58
2024/02/18 10:33:55;;;;;;;27.53;17.10;;;8.80;99.90;;;;;;4986981;28;20559;-59
2024/02/18 10:36:24;;;;;;;27.80;17.07;;;8.80;99.90;;;;;;4986671;28;20529;-60
2024/02/18 10:38:56;;;;;;;29.20;17.03;;;8.90;99.90;;;;;;4989720;28;20440;-60
2024/02/18 10:41:35;;;;;;;29.70;17.33;;;9.00;99.90;;;;;;4984663;28;20837;-59
2024/02/18 10:44:04;;;;;;;28.70;17.13;;;9.10;99.90;;;;;;4989811;28;20538;-58
2024/02/18 10:46:32;;;;;;;23.50;16.00;;;9.10;99.90;;;;;;4986598;28;20447;-59
2024/02/18 10:49:13;;;;;;;26.03;17.23;;;9.30;99.90;;;;;;4984084;28;20416;-60
2024/02/18 10:51:41;;;;;;;26.97;16.93;;;9.40;99.90;;;;;;4992607;28;20879;-59
2024/02/18 10:54:39;;;;;;;22.47;14.50;;;9.40;99.90;;;;;;4989777;28;20463;-59
2024/02/18 10:57:05;;;;;;;20.30;13.87;;;9.50;99.90;;;;;;4985489;28;20431;-60
2024/02/18 10:59:41;;;;;;;21.73;14.27;;;9.50;99.90;;;;;;4985739;28;20443;-60
2024/02/18 11:02:23;;;;;;;16.80;12.07;;;9.60;99.90;;;;;;4983482;28;20621;-60
2024/02/18 11:04:49;;;;;;;18.90;12.77;;;9.60;99.90;;;;;;4984520;28;20460;-59
2024/02/18 11:07:16;;;;;;;17.80;11.90;;;9.60;99.60;;;;;;4983622;28;20429;-59
2024/02/18 11:09:45;;;;;;;16.63;11.40;;;9.70;99.30;;;;;;4984979;28;20412;-59
2024/02/18 11:12:13;;;;;;;15.00;10.30;;;9.70;97.70;;;;;;4988170;28;20428;-59
2024/02/18 11:14:39;;;;;;;16.43;11.30;;;9.70;96.00;;;;;;4982746;28;20567;-59
2024/02/18 11:17:05;;;;;;;16.40;11.17;;;9.80;94.30;;;;;;4982458;28;20440;-60
2024/02/18 11:19:34;;;;;;;21.00;12.43;;;9.80;94.60;;;;;;4983209;28;20478;-59
2024/02/18 11:22:00;;;;;;;19.87;13.33;;;9.80;94.30;;;;;;4986933;28;20201;-59
2024/02/18 11:24:26;;;;;;;19.90;13.70;;;9.90;93.80;;;;;;4983684;28;20471;-61
2024/02/18 11:26:52;;;;;;;17.97;12.10;;;9.90;93.40;;;;;;4988318;28;20424;-59
2024/02/18 11:29:18;;;;;;;21.97;14.63;;;9.90;93.60;;;;;;4984140;28;20200;-60
2024/02/18 11:31:44;;;;;;;22.97;15.47;;;9.90;93.70;;;;;;4982760;28;20252;-60
2024/02/18 11:34:09;;;;;;;23.53;15.70;;;9.90;93.90;;;;;;4986207;28;20333;-60
2024/02/18 11:36:35;;;;;;;22.37;15.33;;;9.90;93.50;;;;;;4985296;28;20193;-60
2024/02/18 11:39:03;;;;;;;23.40;16.07;;;10.00;91.80;;;;;;4988278;28;20572;-60
2024/02/18 11:41:32;;;;;;;23.53;15.80;;;10.00;91.80;;;;;;4980596;28;20217;-59
2024/02/18 11:44:00;;;;;;;26.10;16.20;;;10.00;91.50;;;;;;4987642;28;20437;-61
2024/02/18 11:46:27;;;;;;;27.90;17.33;;;10.00;91.60;;;;;;4983749;28;20416;-60
2024/02/18 11:48:54;;;;;;;22.07;16.70;;;10.00;92.60;;;;;;4982935;28;20444;-60
2024/02/18 11:51:21;;;;;;;20.20;12.37;;;10.10;93.50;;;;;;4985911;28;20581;-58
2024/02/18 11:53:47;;;;;;;16.57;9.53;;;10.10;90.20;;;;;;4984532;28;20448;-59
2024/02/18 11:56:14;;;;;;;11.07;7.90;;;10.20;85.70;;;;;;4982382;28;20578;-59
2024/02/18 11:58:40;;;;;;;15.00;9.77;;;10.20;82.40;;;;;;4984069;28;20452;-60
2024/02/18 12:01:06;;;;;;;13.90;9.30;;;10.30;81.30;;;;;;4981498;28;20467;-59
2024/02/18 12:03:33;;;;;;;11.73;7.80;;;10.40;81.50;;;;;;4992414;28;20443;-58
2024/02/18 12:05:59;;;;;;;12.03;7.40;;;10.40;79.20;;;;;;4984452;28;20421;-59
2024/02/18 12:08:29;;;;;;;10.03;6.70;;;10.50;78.10;;;;;;4987368;28;20432;-59
2024/02/18 12:10:57;;;;;;;10.20;6.73;;;10.60;76.30;;;;;;4984361;28;20436;-60
2024/02/18 12:13:23;;;;;;;8.80;6.43;;;10.70;75.30;;;;;;4985350;28;20467;-59
2024/02/18 12:15:49;;;;;;;9.93;6.37;;;10.70;75.00;;;;;;4985903;28;20423;-60
2024/02/18 12:18:19;;;;;;;10.90;7.30;;;10.80;74.30;;;;;;4987657;28;20173;-59
2024/02/18 12:20:47;;;;;;;11.00;6.70;;;10.80;73.40;;;;;;4989330;28;20458;-59
2024/02/18 12:23:14;;;;;;;12.07;6.30;;;10.90;71.60;;;;;;4986837;28;20440;-60
2024/02/18 12:25:40;;;;;;;10.40;7.40;;;11.00;71.20;;;;;;4983088;28;20443;-60
2024/02/18 12:28:08;;;;;;;9.33;6.63;;;11.00;71.20;;;;;;4984317;28;20467;-59
2024/02/18 12:30:34;;;;;;;10.57;7.30;;;11.00;70.80;;;;;;4988374;28;20459;-57
2024/02/18 12:33:00;;;;;;;10.70;7.33;;;11.00;70.70;;;;;;4985384;28;20518;-60